sensor_id;sensor_type;location;lat;lon;timestamp;pressure;altitude;pressure_sealevel;temperature;humidity
35908;BME280;22003;50.320;8.054;2024-02-14T00:01:03;99919.84;;;6.08;100.00
35908;BME280;22003;50.320;8.054;2024-02-14T00:03:28;99930.63;;;6.04;99.95
35908;BME280;22003;50.320;8.054;2024-02-14T00:05:53;99923.66;;;6.03;99.54
35908;BME280;22003;50.320;8.054;2024-02-14T00:08:20;99920.94;;;6.04;99.60
35908;BME280;22003;50.320;8.054;2024-02-14T00:10:46;99918.41;;;6.03;99.47
35908;BME280;22003;50.320;8.054;2024-02-14T00:13:11;99917.47;;;6.04;98.86
35908;BME280;22003;50.320;8.054;2024-02-14T00:15:37;99896.69;;;5.99;98.61
35908;BME280;22003;50.320;8.054;2024-02-14T00:18:03;99902.47;;;6.06;98.59
35908;BME280;22003;50.320;8.054;2024-02-14T00:20:28;99906.44;;;6.13;97.70
35908;BME280;22003;50.320;8.054;2024-02-14T00:22:53;99897.09;;;6.07;97.67
35908;BME280;22003;50.320;8.054;2024-02-14T00:25:19;99901.69;;;6.04;98.02
35908;BME280;22003;50.320;8.054;2024-02-14T00:27:45;99909.50;;;6.05;98.05
35908;BME280;22003;50.320;8.054;2024-02-14T00:30:11;99889.47;;;6.03;97.52
35908;BME280;22003;50.320;8.054;2024-02-14T00:32:36;99891.94;;;6.06;97.67
35908;BME280;22003;50.320;8.054;2024-02-14T00:35:01;99886.75;;;6.04;97.69
35908;BME280;22003;50.320;8.054;2024-02-14T00:37:27;99882.91;;;6.10;97.86
35908;BME280;22003;50.320;8.054;2024-02-14T00:39:54;99869.75;;;6.10;97.43
35908;BME280;22003;50.320;8.054;2024-02-14T00:42:20;99874.88;;;6.13;96.96
35908;BME280;22003;50.320;8.054;2024-02-14T00:44:46;99877.41;;;6.15;97.10
35908;BME280;22003;50.320;8.054;2024-02-14T00:47:11;99875.88;;;6.11;97.57
35908;BME280;22003;50.320;8.054;2024-02-14T00:49:37;99836.22;;;5.83;97.86
35908;BME280;22003;50.320;8.054;2024-02-14T00:52:04;99877.66;;;6.10;97.92
35908;BME280;22003;50.320;8.054;2024-02-14T00:54:29;99876.19;;;6.20;97.27
35908;BME280;22003;50.320;8.054;2024-02-14T00:56:54;99876.38;;;6.17;97.02
35908;BME280;22003;50.320;8.054;2024-02-14T00:59:20;99881.47;;;6.20;96.56
35908;BME280;22003;50.320;8.054;2024-02-14T01:01:45;99883.50;;;6.15;96.59
35908;BME280;22003;50.320;8.054;2024-02-14T01:04:10;99878.59;;;6.09;97.07
35908;BME280;22003;50.320;8.054;2024-02-14T01:06:36;99887.81;;;6.16;97.42
35908;BME280;22003;50.320;8.054;2024-02-14T01:09:01;99882.16;;;6.08;97.73
35908;BME280;22003;50.320;8.054;2024-02-14T01:11:26;99884.53;;;6.13;97.86
35908;BME280;22003;50.320;8.054;2024-02-14T01:13:52;99885.47;;;6.12;97.85
35908;BME280;22003;50.320;8.054;2024-02-14T01:16:17;99886.75;;;6.04;98.29
35908;BME280;22003;50.320;8.054;2024-02-14T01:18:43;99886.75;;;6.04;98.64
35908;BME280;22003;50.320;8.054;2024-02-14T01:21:08;99886.31;;;6.12;98.61
35908;BME280;22003;50.320;8.054;2024-02-14T01:23:33;99886.75;;;6.04;99.01
35908;BME280;22003;50.320;8.054;2024-02-14T01:25:59;99892.28;;;6.00;99.23
35908;BME280;22003;50.320;8.054;2024-02-14T01:28:24;99878.94;;;6.03;99.29
35908;BME280;22003;50.320;8.054;2024-02-14T01:30:50;99879.00;;;6.47;97.65
35908;BME280;22003;50.320;8.054;2024-02-14T01:33:16;99884.78;;;6.68;94.78
35908;BME280;22003;50.320;8.054;2024-02-14T01:35:41;99804.59;;;6.15;93.41
35908;BME280;22003;50.320;8.054;2024-02-14T01:38:07;99873.88;;;6.74;93.25
35908;BME280;22003;50.320;8.054;2024-02-14T01:40:33;99869.09;;;6.95;90.52
35908;BME280;22003;50.320;8.054;2024-02-14T01:42:58;99853.56;;;7.19;89.61
35908;BME280;22003;50.320;8.054;2024-02-14T01:45:23;99855.47;;;7.03;88.91
35908;BME280;22003;50.320;8.054;2024-02-14T01:47:49;99849.63;;;7.12;89.33
35908;BME280;22003;50.320;8.054;2024-02-14T01:50:15;99848.88;;;6.96;89.89
35908;BME280;22003;50.320;8.054;2024-02-14T01:52:41;99848.41;;;6.89;90.34
35908;BME280;22003;50.320;8.054;2024-02-14T01:55:07;99824.22;;;6.68;90.76
35908;BME280;22003;50.320;8.054;2024-02-14T01:57:34;99836.66;;;6.95;90.03
35908;BME280;22003;50.320;8.054;2024-02-14T02:00:01;99837.59;;;6.79;90.85
35908;BME280;22003;50.320;8.054;2024-02-14T02:02:33;99833.44;;;6.61;91.34
35908;BME280;22003;50.320;8.054;2024-02-14T02:04:58;99831.72;;;6.60;91.98
35908;BME280;22003;50.320;8.054;2024-02-14T02:07:23;99828.41;;;6.42;92.34
35908;BME280;22003;50.320;8.054;2024-02-14T02:09:50;99815.25;;;6.28;92.74
35908;BME280;22003;50.320;8.054;2024-02-14T02:12:15;99808.53;;;6.08;93.70
35908;BME280;22003;50.320;8.054;2024-02-14T02:14:40;99816.28;;;5.95;94.66
35908;BME280;22003;50.320;8.054;2024-02-14T02:17:07;99807.56;;;5.95;95.08
35908;BME280;22003;50.320;8.054;2024-02-14T02:19:33;99805.09;;;5.92;94.94
35908;BME280;22003;50.320;8.054;2024-02-14T02:21:59;99801.69;;;5.90;95.53
35908;BME280;22003;50.320;8.054;2024-02-14T02:24:24;99713.84;;;5.48;96.38
35908;BME280;22003;50.320;8.054;2024-02-14T02:26:50;99808.94;;;6.30;96.05
35908;BME280;22003;50.320;8.054;2024-02-14T02:29:15;99808.22;;;6.71;94.19
35908;BME280;22003;50.320;8.054;2024-02-14T02:31:41;99813.31;;;6.74;93.20
35908;BME280;22003;50.320;8.054;2024-02-14T02:34:06;99820.66;;;6.69;93.75
35908;BME280;22003;50.320;8.054;2024-02-14T02:36:32;99821.03;;;6.77;93.40
35908;BME280;22003;50.320;8.054;2024-02-14T02:38:58;99815.97;;;6.88;93.02
35908;BME280;22003;50.320;8.054;2024-02-14T02:41:25;99817.28;;;6.81;92.18
35908;BME280;22003;50.320;8.054;2024-02-14T02:43:50;99814.75;;;6.94;92.98
35908;BME280;22003;50.320;8.054;2024-02-14T02:46:16;99816.72;;;6.91;92.69
35908;BME280;22003;50.320;8.054;2024-02-14T02:48:41;99818.88;;;6.98;91.45
35908;BME280;22003;50.320;8.054;2024-02-14T02:51:06;99817.09;;;6.84;92.11
35908;BME280;22003;50.320;8.054;2024-02-14T02:53:31;99835.16;;;6.91;92.96
35908;BME280;22003;50.320;8.054;2024-02-14T02:55:57;99820.69;;;6.83;93.35
35908;BME280;22003;50.320;8.054;2024-02-14T02:58:22;99821.78;;;6.79;93.68
35908;BME280;22003;50.320;8.054;2024-02-14T03:00:48;99833.09;;;6.96;94.18
35908;BME280;22003;50.320;8.054;2024-02-14T03:03:15;99835.31;;;6.87;94.07
35908;BME280;22003;50.320;8.054;2024-02-14T03:05:41;99828.75;;;6.80;94.21
35908;BME280;22003;50.320;8.054;2024-02-14T03:08:06;99836.19;;;7.17;93.65
35908;BME280;22003;50.320;8.054;2024-02-14T03:10:33;99798.19;;;6.78;93.21
35908;BME280;22003;50.320;8.054;2024-02-14T03:12:58;99835.13;;;7.05;93.20
35908;BME280;22003;50.320;8.054;2024-02-14T03:15:23;99840.59;;;7.02;93.63
35908;BME280;22003;50.320;8.054;2024-02-14T03:17:50;99840.41;;;7.19;93.92
35908;BME280;22003;50.320;8.054;2024-02-14T03:20:16;99834.06;;;7.22;92.31
35908;BME280;22003;50.320;8.054;2024-02-14T03:22:42;99816.06;;;7.01;92.68
35908;BME280;22003;50.320;8.054;2024-02-14T03:25:11;99835.31;;;7.16;93.23
35908;BME280;22003;50.320;8.054;2024-02-14T03:27:37;99840.56;;;7.45;93.51
35908;BME280;22003;50.320;8.054;2024-02-14T03:30:02;99831.53;;;7.34;92.15
35908;BME280;22003;50.320;8.054;2024-02-14T03:32:28;99831.31;;;7.52;91.55
35908;BME280;22003;50.320;8.054;2024-02-14T03:34:53;99814.22;;;7.30;91.57
35908;BME280;22003;50.320;8.054;2024-02-14T03:37:19;99831.44;;;7.22;92.68
35908;BME280;22003;50.320;8.054;2024-02-14T03:39:44;99834.22;;;7.47;92.39
35908;BME280;22003;50.320;8.054;2024-02-14T03:42:10;99835.75;;;7.37;92.51
35908;BME280;22003;50.320;8.054;2024-02-14T03:44:36;99842.53;;;7.27;93.49
35908;BME280;22003;50.320;8.054;2024-02-14T03:47:03;99836.81;;;7.20;93.99
35908;BME280;22003;50.320;8.054;2024-02-14T03:49:29;99840.56;;;7.45;92.63
35908;BME280;22003;50.320;8.054;2024-02-14T03:51:56;99845.72;;;7.46;92.92
35908;BME280;22003;50.320;8.054;2024-02-14T03:54:21;99801.25;;;6.99;93.79
35908;BME280;22003;50.320;8.054;2024-02-14T03:56:48;99826.16;;;7.36;94.36
35908;BME280;22003;50.320;8.054;2024-02-14T03:59:14;99843.09;;;7.32;94.20
35908;BME280;22003;50.320;8.054;2024-02-14T04:01:44;99846.03;;;7.27;94.82
35908;BME280;22003;50.320;8.054;2024-02-14T04:04:09;99843.31;;;7.29;95.23
35908;BME280;22003;50.320;8.054;2024-02-14T04:06:35;99849.03;;;7.21;95.80
35908;BME280;22003;50.320;8.054;2024-02-14T04:09:00;99846.50;;;7.20;96.73
35908;BME280;22003;50.320;8.054;2024-02-14T04:11:25;99857.44;;;7.55;95.58
35908;BME280;22003;50.320;8.054;2024-02-14T04:13:50;99864.22;;;7.59;95.94
35908;BME280;22003;50.320;8.054;2024-02-14T04:16:19;99861.81;;;7.41;95.38
35908;BME280;22003;50.320;8.054;2024-02-14T04:18:44;99866.41;;;7.52;96.43
35908;BME280;22003;50.320;8.054;2024-02-14T04:21:09;99828.53;;;7.26;96.64
35908;BME280;22003;50.320;8.054;2024-02-14T04:23:35;99874.72;;;7.46;97.47
35908;BME280;22003;50.320;8.054;2024-02-14T04:26:00;99873.97;;;7.44;97.94
35908;BME280;22003;50.320;8.054;2024-02-14T04:28:25;99877.06;;;7.51;99.84
35908;BME280;22003;50.320;8.054;2024-02-14T04:30:50;99861.47;;;7.33;100.00
35908;BME280;22003;50.320;8.054;2024-02-14T04:33:16;99870.19;;;7.48;100.00
35908;BME280;22003;50.320;8.054;2024-02-14T04:35:42;99875.31;;;7.23;100.00
35908;BME280;22003;50.320;8.054;2024-02-14T04:38:07;99867.97;;;7.13;100.00
35908;BME280;22003;50.320;8.054;2024-02-14T04:40:33;99876.81;;;7.12;100.00
35908;BME280;22003;50.320;8.054;2024-02-14T04:42:59;99863.44;;;7.15;100.00
35908;BME280;22003;50.320;8.054;2024-02-14T04:45:24;99861.47;;;7.19;100.00
35908;BME280;22003;50.320;8.054;2024-02-14T04:47:49;99858.94;;;7.03;100.00
35908;BME280;22003;50.320;8.054;2024-02-14T04:50:15;99854.88;;;6.98;100.00
35908;BME280;22003;50.320;8.054;2024-02-14T04:52:40;99857.06;;;7.05;100.00
35908;BME280;22003;50.320;8.054;2024-02-14T04:55:06;99868.53;;;7.04;100.00
35908;BME280;22003;50.320;8.054;2024-02-14T04:57:31;99858.47;;;6.97;100.00
35908;BME280;22003;50.320;8.054;2024-02-14T05:00:00;99852.44;;;6.80;100.00
35908;BME280;22003;50.320;8.054;2024-02-14T05:02:25;99858.09;;;6.74;100.00
35908;BME280;22003;50.320;8.054;2024-02-14T05:04:52;99846.88;;;6.71;100.00
35908;BME280;22003;50.320;8.054;2024-02-14T05:07:17;99855.06;;;6.66;100.00
35908;BME280;22003;50.320;8.054;2024-02-14T05:09:43;99849.25;;;6.61;100.00
35908;BME280;22003;50.320;8.054;2024-02-14T05:12:09;99850.25;;;6.58;100.00
35908;BME280;22003;50.320;8.054;2024-02-14T05:14:37;99805.63;;;6.27;100.00
35908;BME280;22003;50.320;8.054;2024-02-14T05:17:03;99858.25;;;6.71;100.00
35908;BME280;22003;50.320;8.054;2024-02-14T05:19:29;99860.81;;;6.73;100.00
35908;BME280;22003;50.320;8.054;2024-02-14T05:21:55;99861.19;;;6.81;100.00
35908;BME280;22003;50.320;8.054;2024-02-14T05:24:20;99857.72;;;6.80;100.00
35908;BME280;22003;50.320;8.054;2024-02-14T05:26:45;99857.34;;;6.86;100.00
35908;BME280;22003;50.320;8.054;2024-02-14T05:29:11;99860.88;;;6.71;100.00
35908;BME280;22003;50.320;8.054;2024-02-14T05:31:46;99867.88;;;6.72;100.00
35908;BME280;22003;50.320;8.054;2024-02-14T05:34:13;99865.88;;;6.76;100.00
35908;BME280;22003;50.320;8.054;2024-02-14T05:36:39;99872.19;;;6.87;100.00
35908;BME280;22003;50.320;8.054;2024-02-14T05:39:04;99886.41;;;6.99;100.00
35908;BME280;22003;50.320;8.054;2024-02-14T05:41:33;99839.25;;;6.66;100.00
35908;BME280;22003;50.320;8.054;2024-02-14T05:43:59;99877.66;;;6.84;100.00
35908;BME280;22003;50.320;8.054;2024-02-14T05:46:25;99883.41;;;6.91;100.00
35908;BME280;22003;50.320;8.054;2024-02-14T05:48:50;99892.34;;;7.03;100.00
35908;BME280;22003;50.320;8.054;2024-02-14T05:51:17;99889.41;;;6.93;100.00
35908;BME280;22003;50.320;8.054;2024-02-14T05:53:42;99884.78;;;6.82;100.00
35908;BME280;22003;50.320;8.054;2024-02-14T05:56:08;99882.94;;;6.84;100.00
35908;BME280;22003;50.320;8.054;2024-02-14T05:58:33;99877.25;;;6.76;100.00
35908;BME280;22003;50.320;8.054;2024-02-14T06:00:58;99883.19;;;6.80;100.00
35908;BME280;22003;50.320;8.054;2024-02-14T06:03:23;99875.00;;;6.70;100.00
35908;BME280;22003;50.320;8.054;2024-02-14T06:05:49;99889.03;;;6.99;100.00
35908;BME280;22003;50.320;8.054;2024-02-14T06:08:14;99896.75;;;7.02;100.00
35908;BME280;22003;50.320;8.054;2024-02-14T06:10:39;99886.41;;;6.99;100.00
35908;BME280;22003;50.320;8.054;2024-02-14T06:13:05;99892.34;;;7.03;100.00
35908;BME280;22003;50.320;8.054;2024-02-14T06:15:30;99900.16;;;6.90;100.00
35908;BME280;22003;50.320;8.054;2024-02-14T06:17:55;99894.22;;;6.86;100.00
35908;BME280;22003;50.320;8.054;2024-02-14T06:20:21;99904.84;;;6.85;100.00
35908;BME280;22003;50.320;8.054;2024-02-14T06:22:46;99914.25;;;6.89;100.00
35908;BME280;22003;50.320;8.054;2024-02-14T06:25:11;99907.28;;;6.88;100.00
35908;BME280;22003;50.320;8.054;2024-02-14T06:27:36;99910.78;;;6.88;100.00
35908;BME280;22003;50.320;8.054;2024-02-14T06:30:03;99913.75;;;6.82;100.00
35908;BME280;22003;50.320;8.054;2024-02-14T06:32:28;99926.91;;;6.82;100.00
35908;BME280;22003;50.320;8.054;2024-02-14T06:34:53;99920.81;;;6.82;100.00
35908;BME280;22003;50.320;8.054;2024-02-14T06:37:18;99920.16;;;6.78;100.00
35908;BME280;22003;50.320;8.054;2024-02-14T06:39:44;99932.97;;;6.84;100.00
35908;BME280;22003;50.320;8.054;2024-02-14T06:42:09;99932.19;;;6.82;100.00
35908;BME280;22003;50.320;8.054;2024-02-14T06:44:34;99935.59;;;6.84;100.00
35908;BME280;22003;50.320;8.054;2024-02-14T06:46:59;99927.44;;;6.89;100.00
35908;BME280;22003;50.320;8.054;2024-02-14T06:49:25;99926.75;;;6.85;100.00
35908;BME280;22003;50.320;8.054;2024-02-14T06:51:50;99923.44;;;6.82;100.00
35908;BME280;22003;50.320;8.054;2024-02-14T06:54:15;99911.63;;;6.89;100.00
35908;BME280;22003;50.320;8.054;2024-02-14T06:56:42;99915.00;;;6.91;100.00
35908;BME280;22003;50.320;8.054;2024-02-14T06:59:07;99915.19;;;6.88;100.00
35908;BME280;22003;50.320;8.054;2024-02-14T07:01:32;99926.00;;;6.83;100.00
35908;BME280;22003;50.320;8.054;2024-02-14T07:03:58;99940.38;;;6.78;100.00
35908;BME280;22003;50.320;8.054;2024-02-14T07:06:24;99926.66;;;6.87;100.00
35908;BME280;22003;50.320;8.054;2024-02-14T07:08:49;99923.53;;;6.80;100.00
35908;BME280;22003;50.320;8.054;2024-02-14T07:11:15;99933.81;;;6.85;100.00
35908;BME280;22003;50.320;8.054;2024-02-14T07:13:41;99936.44;;;6.85;100.00
35908;BME280;22003;50.320;8.054;2024-02-14T07:16:06;99945.94;;;6.87;100.00
35908;BME280;22003;50.320;8.054;2024-02-14T07:18:32;99931.19;;;6.85;100.00
35908;BME280;22003;50.320;8.054;2024-02-14T07:20:57;99947.44;;;6.92;100.00
35908;BME280;22003;50.320;8.054;2024-02-14T07:23:22;99952.25;;;6.85;100.00
35908;BME280;22003;50.320;8.054;2024-02-14T07:25:48;99953.09;;;6.85;100.00
35908;BME280;22003;50.320;8.054;2024-02-14T07:28:13;99941.97;;;6.80;100.00
35908;BME280;22003;50.320;8.054;2024-02-14T07:30:38;99960.41;;;6.80;100.00
35908;BME280;22003;50.320;8.054;2024-02-14T07:33:04;99965.50;;;6.83;100.00
35908;BME280;22003;50.320;8.054;2024-02-14T07:35:29;99951.13;;;6.89;100.00
35908;BME280;22003;50.320;8.054;2024-02-14T07:37:55;99955.75;;;7.00;100.00
35908;BME280;22003;50.320;8.054;2024-02-14T07:40:21;99956.31;;;7.05;100.00
35908;BME280;22003;50.320;8.054;2024-02-14T07:42:46;99951.22;;;7.16;100.00
35908;BME280;22003;50.320;8.054;2024-02-14T07:45:12;99957.66;;;7.26;100.00
35908;BME280;22003;50.320;8.054;2024-02-14T07:47:37;99960.78;;;7.33;100.00
35908;BME280;22003;50.320;8.054;2024-02-14T07:50:05;99963.88;;;7.39;100.00
35908;BME280;22003;50.320;8.054;2024-02-14T07:52:31;99956.34;;;7.48;100.00
35908;BME280;22003;50.320;8.054;2024-02-14T07:54:56;99966.31;;;7.57;100.00
35908;BME280;22003;50.320;8.054;2024-02-14T07:57:22;99958.59;;;7.68;100.00
35908;BME280;22003;50.320;8.054;2024-02-14T07:59:48;99952.72;;;7.77;100.00
35908;BME280;22003;50.320;8.054;2024-02-14T08:02:13;99956.31;;;7.76;100.00
35908;BME280;22003;50.320;8.054;2024-02-14T08:04:39;99965.03;;;7.91;100.00
35908;BME280;22003;50.320;8.054;2024-02-14T08:07:04;99963.91;;;7.95;100.00
35908;BME280;22003;50.320;8.054;2024-02-14T08:09:29;99897.44;;;7.76;100.00
35908;BME280;22003;50.320;8.054;2024-02-14T08:11:55;99959.03;;;8.16;100.00
35908;BME280;22003;50.320;8.054;2024-02-14T08:14:20;99970.97;;;8.21;100.00
35908;BME280;22003;50.320;8.054;2024-02-14T08:16:46;99972.19;;;8.30;100.00
35908;BME280;22003;50.320;8.054;2024-02-14T08:19:11;99974.53;;;8.35;100.00
35908;BME280;22003;50.320;8.054;2024-02-14T08:21:36;99963.50;;;8.42;100.00
35908;BME280;22003;50.320;8.054;2024-02-14T08:24:02;99970.28;;;8.46;100.00
35908;BME280;22003;50.320;8.054;2024-02-14T08:26:27;99982.00;;;8.28;100.00
35908;BME280;22003;50.320;8.054;2024-02-14T08:28:53;99974.16;;;8.27;100.00
35908;BME280;22003;50.320;8.054;2024-02-14T08:31:19;99924.06;;;7.85;100.00
35908;BME280;22003;50.320;8.054;2024-02-14T08:33:45;99972.50;;;8.26;100.00
35908;BME280;22003;50.320;8.054;2024-02-14T08:36:10;99977.75;;;8.40;100.00
35908;BME280;22003;50.320;8.054;2024-02-14T08:38:35;99976.69;;;8.42;100.00
35908;BME280;22003;50.320;8.054;2024-02-14T08:41:01;99988.44;;;8.78;100.00
35908;BME280;22003;50.320;8.054;2024-02-14T08:43:27;99984.97;;;9.03;100.00
35908;BME280;22003;50.320;8.054;2024-02-14T08:45:56;99995.66;;;8.89;100.00
35908;BME280;22003;50.320;8.054;2024-02-14T08:48:22;99996.91;;;8.83;100.00
35908;BME280;22003;50.320;8.054;2024-02-14T08:50:48;99991.13;;;9.42;99.60
35908;BME280;22003;50.320;8.054;2024-02-14T08:53:13;99989.84;;;9.47;98.14
35908;BME280;22003;50.320;8.054;2024-02-14T08:55:39;99981.28;;;9.31;98.27
35908;BME280;22003;50.320;8.054;2024-02-14T08:58:04;99975.28;;;9.29;98.97
35908;BME280;22003;50.320;8.054;2024-02-14T09:00:30;99983.75;;;9.34;99.29
35908;BME280;22003;50.320;8.054;2024-02-14T09:02:56;99980.25;;;9.46;98.33
35908;BME280;22003;50.320;8.054;2024-02-14T09:05:21;99975.69;;;9.36;98.00
35908;BME280;22003;50.320;8.054;2024-02-14T09:07:47;99975.25;;;9.55;98.73
35908;BME280;22003;50.320;8.054;2024-02-14T09:10:13;99963.63;;;9.57;97.77
35908;BME280;22003;50.320;8.054;2024-02-14T09:12:38;99971.69;;;9.56;97.42
35908;BME280;22003;50.320;8.054;2024-02-14T09:15:06;99974.50;;;9.78;96.99
35908;BME280;22003;50.320;8.054;2024-02-14T09:17:31;99975.34;;;9.78;95.74
35908;BME280;22003;50.320;8.054;2024-02-14T09:19:57;99982.28;;;9.92;96.10
35908;BME280;22003;50.320;8.054;2024-02-14T09:22:22;99979.03;;;9.76;96.38
35908;BME280;22003;50.320;8.054;2024-02-14T09:24:48;99977.22;;;9.89;95.85
35908;BME280;22003;50.320;8.054;2024-02-14T09:27:14;99969.94;;;9.80;97.03
35908;BME280;22003;50.320;8.054;2024-02-14T09:29:39;99975.81;;;9.96;96.16
35908;BME280;22003;50.320;8.054;2024-02-14T09:32:04;99981.97;;;10.21;95.86
35908;BME280;22003;50.320;8.054;2024-02-14T09:34:30;99978.03;;;10.02;95.28
35908;BME280;22003;50.320;8.054;2024-02-14T09:36:56;99984.56;;;10.10;95.59
35908;BME280;22003;50.320;8.054;2024-02-14T09:39:23;99986.97;;;10.25;94.52
35908;BME280;22003;50.320;8.054;2024-02-14T09:41:52;99960.84;;;10.08;94.46
35908;BME280;22003;50.320;8.054;2024-02-14T09:44:20;99981.56;;;10.27;93.83
35908;BME280;22003;50.320;8.054;2024-02-14T09:46:47;99984.31;;;10.25;94.51
35908;BME280;22003;50.320;8.054;2024-02-14T09:49:14;99986.13;;;10.25;93.85
35908;BME280;22003;50.320;8.054;2024-02-14T09:51:42;99946.31;;;10.14;93.14
35908;BME280;22003;50.320;8.054;2024-02-14T09:54:10;99972.63;;;10.41;91.97
35908;BME280;22003;50.320;8.054;2024-02-14T09:56:36;99959.16;;;10.44;91.29
35908;BME280;22003;50.320;8.054;2024-02-14T09:59:02;99984.16;;;10.64;91.74
35908;BME280;22003;50.320;8.054;2024-02-14T10:01:27;99986.00;;;10.74;92.76
35908;BME280;22003;50.320;8.054;2024-02-14T10:03:53;99983.31;;;10.98;92.56
35908;BME280;22003;50.320;8.054;2024-02-14T10:06:19;99975.16;;;11.13;89.41
35908;BME280;22003;50.320;8.054;2024-02-14T10:08:48;99977.97;;;11.33;89.10
35908;BME280;22003;50.320;8.054;2024-02-14T10:11:17;99973.84;;;11.18;87.64
35908;BME280;22003;50.320;8.054;2024-02-14T10:13:47;99982.75;;;11.17;88.19
35908;BME280;22003;50.320;8.054;2024-02-14T10:16:14;99991.84;;;11.48;88.52
35908;BME280;22003;50.320;8.054;2024-02-14T10:18:39;99955.03;;;11.21;86.51
35908;BME280;22003;50.320;8.054;2024-02-14T10:21:04;100001.00;;;11.44;87.39
35908;BME280;22003;50.320;8.054;2024-02-14T10:23:29;99997.63;;;11.53;87.02
35908;BME280;22003;50.320;8.054;2024-02-14T10:25:56;99999.09;;;11.69;86.31
35908;BME280;22003;50.320;8.054;2024-02-14T10:28:22;100003.94;;;11.97;84.34
35908;BME280;22003;50.320;8.054;2024-02-14T10:30:48;100006.22;;;12.02;83.28
35908;BME280;22003;50.320;8.054;2024-02-14T10:33:17;100011.41;;;12.14;82.83
35908;BME280;22003;50.320;8.054;2024-02-14T10:35:44;100008.38;;;12.19;82.55
35908;BME280;22003;50.320;8.054;2024-02-14T10:38:11;99982.56;;;11.99;82.16
35908;BME280;22003;50.320;8.054;2024-02-14T10:40:36;100015.75;;;11.93;82.22
35908;BME280;22003;50.320;8.054;2024-02-14T10:43:07;100010.34;;;11.95;82.82
35908;BME280;22003;50.320;8.054;2024-02-14T10:45:34;100001.03;;;12.11;81.50
35908;BME280;22003;50.320;8.054;2024-02-14T10:48:00;100001.25;;;12.08;81.00
35908;BME280;22003;50.320;8.054;2024-02-14T10:50:27;100005.59;;;12.09;81.96
35908;BME280;22003;50.320;8.054;2024-02-14T10:52:57;100004.91;;;11.96;81.81
35908;BME280;22003;50.320;8.054;2024-02-14T10:55:24;99996.69;;;11.88;81.92
35908;BME280;22003;50.320;8.054;2024-02-14T10:57:53;100004.25;;;11.59;82.52
35908;BME280;22003;50.320;8.054;2024-02-14T11:00:20;100020.31;;;11.80;81.92
35908;BME280;22003;50.320;8.054;2024-02-14T11:02:46;100009.72;;;12.02;81.70
35908;BME280;22003;50.320;8.054;2024-02-14T11:05:13;99946.22;;;11.99;81.50
35908;BME280;22003;50.320;8.054;2024-02-14T11:07:49;100012.22;;;12.26;80.22
35908;BME280;22003;50.320;8.054;2024-02-14T11:10:18;100001.06;;;12.43;79.04
35908;BME280;22003;50.320;8.054;2024-02-14T11:12:46;99995.56;;;12.67;79.30
35908;BME280;22003;50.320;8.054;2024-02-14T11:15:22;99994.88;;;12.54;78.56
35908;BME280;22003;50.320;8.054;2024-02-14T11:17:49;99997.09;;;12.70;79.11
35908;BME280;22003;50.320;8.054;2024-02-14T11:20:30;99999.34;;;12.54;79.04
35908;BME280;22003;50.320;8.054;2024-02-14T11:22:58;99998.28;;;12.45;80.13
35908;BME280;22003;50.320;8.054;2024-02-14T11:25:29;100015.03;;;12.13;81.28
35908;BME280;22003;50.320;8.054;2024-02-14T11:27:55;100005.81;;;12.29;80.47
35908;BME280;22003;50.320;8.054;2024-02-14T11:30:33;100010.09;;;11.86;81.36
35908;BME280;22003;50.320;8.054;2024-02-14T11:33:18;99998.41;;;11.89;81.43
35908;BME280;22003;50.320;8.054;2024-02-14T11:35:49;99945.16;;;11.34;82.50
35908;BME280;22003;50.320;8.054;2024-02-14T11:38:17;100004.63;;;11.66;83.87
35908;BME280;22003;50.320;8.054;2024-02-14T11:40:43;100004.88;;;12.07;82.31
35908;BME280;22003;50.320;8.054;2024-02-14T11:43:12;100007.53;;;12.19;81.46
35908;BME280;22003;50.320;8.054;2024-02-14T11:45:39;100002.44;;;12.27;81.67
35908;BME280;22003;50.320;8.054;2024-02-14T11:48:16;100017.56;;;12.58;80.88
35908;BME280;22003;50.320;8.054;2024-02-14T11:50:43;99995.88;;;12.42;80.14
35908;BME280;22003;50.320;8.054;2024-02-14T11:53:13;100003.97;;;12.40;80.46
35908;BME280;22003;50.320;8.054;2024-02-14T11:55:41;100008.31;;;12.41;80.36
35908;BME280;22003;50.320;8.054;2024-02-14T11:58:11;100013.00;;;12.60;79.95
35908;BME280;22003;50.320;8.054;2024-02-14T12:00:38;99999.97;;;12.46;80.82
35908;BME280;22003;50.320;8.054;2024-02-14T12:03:06;100005.81;;;12.29;82.19
35908;BME280;22003;50.320;8.054;2024-02-14T12:05:32;99998.59;;;12.20;81.91
35908;BME280;22003;50.320;8.054;2024-02-14T12:07:59;100003.16;;;12.29;81.77
35908;BME280;22003;50.320;8.054;2024-02-14T12:10:24;100006.50;;;12.42;83.25
35908;BME280;22003;50.320;8.054;2024-02-14T12:12:49;99998.56;;;12.31;82.75
35908;BME280;22003;50.320;8.054;2024-02-14T12:15:15;100005.91;;;12.50;83.47
35908;BME280;22003;50.320;8.054;2024-02-14T12:17:41;99998.47;;;12.64;83.20
35908;BME280;22003;50.320;8.054;2024-02-14T12:20:10;99993.03;;;12.87;82.00
35908;BME280;22003;50.320;8.054;2024-02-14T12:22:38;99989.03;;;12.72;80.76
35908;BME280;22003;50.320;8.054;2024-02-14T12:25:05;99983.34;;;12.65;80.96
35908;BME280;22003;50.320;8.054;2024-02-14T12:27:32;99982.34;;;12.45;82.68
35908;BME280;22003;50.320;8.054;2024-02-14T12:29:58;99981.09;;;12.49;83.46
35908;BME280;22003;50.320;8.054;2024-02-14T12:32:23;99986.22;;;12.41;82.98
35908;BME280;22003;50.320;8.054;2024-02-14T12:34:48;99987.50;;;12.58;82.82
35908;BME280;22003;50.320;8.054;2024-02-14T12:37:13;99980.78;;;12.42;82.74
35908;BME280;22003;50.320;8.054;2024-02-14T12:39:39;99986.13;;;12.31;83.03
35908;BME280;22003;50.320;8.054;2024-02-14T12:42:04;99972.34;;;12.37;82.73
35908;BME280;22003;50.320;8.054;2024-02-14T12:44:30;99978.31;;;12.19;82.99
35908;BME280;22003;50.320;8.054;2024-02-14T12:46:55;99978.88;;;12.33;83.21
35908;BME280;22003;50.320;8.054;2024-02-14T12:49:20;99979.06;;;11.98;84.39
35908;BME280;22003;50.320;8.054;2024-02-14T12:51:46;99977.03;;;11.91;85.46
35908;BME280;22003;50.320;8.054;2024-02-14T12:54:11;99977.41;;;11.86;85.70
35908;BME280;22003;50.320;8.054;2024-02-14T12:56:39;99953.75;;;11.83;85.25